sensor_id;sensor_type;location;lat;lon;timestamp;temperature;humidity
5027;DHT22;2532;52.480;13.354;2023-01-24T05:02:04;2.30;91.80
5027;DHT22;2532;52.480;13.354;2023-01-24T05:04:31;2.30;91.90
5027;DHT22;2532;52.480;13.354;2023-01-24T05:06:58;2.30;91.90
5027;DHT22;2532;52.480;13.354;2023-01-24T05:09:25;2.30;92.00
5027;DHT22;2532;52.480;13.354;2023-01-24T05:11:52;2.40;92.10
5027;DHT22;2532;52.480;13.354;2023-01-24T05:16:47;2.50;91.90
5027;DHT22;2532;52.480;13.354;2023-01-24T05:19:15;2.50;91.90
5027;DHT22;2532;52.480;13.354;2023-01-24T05:21:42;2.40;91.80
5027;DHT22;2532;52.480;13.354;2023-01-24T05:24:09;2.50;91.80
5027;DHT22;2532;52.480;13.354;2023-01-24T05:26:36;2.50;91.60
5027;DHT22;2532;52.480;13.354;2023-01-24T05:29:03;2.50;91.60
5027;DHT22;2532;52.480;13.354;2023-01-24T05:31:30;2.50;91.70
5027;DHT22;2532;52.480;13.354;2023-01-24T05:33:57;2.50;91.80
5027;DHT22;2532;52.480;13.354;2023-01-24T05:36:25;2.50;91.70
5027;DHT22;2532;52.480;13.354;2023-01-24T05:38:52;2.40;91.60
5027;DHT22;2532;52.480;13.354;2023-01-24T05:41:19;2.50;91.70
5027;DHT22;2532;52.480;13.354;2023-01-24T05:43:47;2.50;91.70
5027;DHT22;2532;52.480;13.354;2023-01-24T05:46:15;2.50;91.60
5027;DHT22;2532;52.480;13.354;2023-01-24T05:48:43;2.50;91.60
5027;DHT22;2532;52.480;13.354;2023-01-24T05:51:13;2.40;91.60
5027;DHT22;2532;52.480;13.354;2023-01-24T05:53:43;2.40;91.60
5027;DHT22;2532;52.480;13.354;2023-01-24T05:56:12;2.40;91.60
5027;DHT22;2532;52.480;13.354;2023-01-24T05:58:40;2.30;91.60
5027;DHT22;2532;52.480;13.354;2023-01-24T06:01:08;2.40;91.70
5027;DHT22;2532;52.480;13.354;2023-01-24T06:03:37;2.30;91.70
5027;DHT22;2532;52.480;13.354;2023-01-24T06:06:04;2.30;91.80
5027;DHT22;2532;52.480;13.354;2023-01-24T06:08:32;2.40;91.70
5027;DHT22;2532;52.480;13.354;2023-01-24T06:11:04;2.40;91.70
5027;DHT22;2532;52.480;13.354;2023-01-24T06:13:31;2.40;91.70
5027;DHT22;2532;52.480;13.354;2023-01-24T06:16:03;2.30;91.70
5027;DHT22;2532;52.480;13.354;2023-01-24T06:18:30;2.30;91.60
5027;DHT22;2532;52.480;13.354;2023-01-24T06:20:57;2.30;91.60
5027;DHT22;2532;52.480;13.354;2023-01-24T06:23:25;2.40;91.60
5027;DHT22;2532;52.480;13.354;2023-01-24T06:25:53;2.30;91.60
5027;DHT22;2532;52.480;13.354;2023-01-24T06:28:22;2.40;91.70
5027;DHT22;2532;52.480;13.354;2023-01-24T06:30:55;2.40;91.70
5027;DHT22;2532;52.480;13.354;2023-01-24T06:33:32;2.40;91.80
5027;DHT22;2532;52.480;13.354;2023-01-24T06:36:16;2.40;91.90
5027;DHT22;2532;52.480;13.354;2023-01-24T06:38:46;2.40;91.90
5027;DHT22;2532;52.480;13.354;2023-01-24T06:41:15;2.40;91.80
5027;DHT22;2532;52.480;13.354;2023-01-24T06:43:44;2.40;91.70
5027;DHT22;2532;52.480;13.354;2023-01-24T06:46:12;2.40;91.80
5027;DHT22;2532;52.480;13.354;2023-01-24T06:48:42;2.40;91.80
5027;DHT22;2532;52.480;13.354;2023-01-24T06:51:11;2.40;92.00
5027;DHT22;2532;52.480;13.354;2023-01-24T06:53:38;2.30;91.70
5027;DHT22;2532;52.480;13.354;2023-01-24T06:56:06;2.30;91.70
5027;DHT22;2532;52.480;13.354;2023-01-24T06:58:34;2.30;91.80
5027;DHT22;2532;52.480;13.354;2023-01-24T07:01:02;2.30;91.80
5027;DHT22;2532;52.480;13.354;2023-01-24T07:03:29;2.20;91.90
5027;DHT22;2532;52.480;13.354;2023-01-24T07:05:56;2.10;91.90
5027;DHT22;2532;52.480;13.354;2023-01-24T07:08:23;2.10;92.00
5027;DHT22;2532;52.480;13.354;2023-01-24T07:10:50;2.10;92.00
5027;DHT22;2532;52.480;13.354;2023-01-24T07:13:17;2.10;92.00
5027;DHT22;2532;52.480;13.354;2023-01-24T07:15:44;2.10;92.10
5027;DHT22;2532;52.480;13.354;2023-01-24T07:18:16;2.10;92.20
5027;DHT22;2532;52.480;13.354;2023-01-24T07:20:44;2.10;92.10
5027;DHT22;2532;52.480;13.354;2023-01-24T07:23:20;2.20;92.10
5027;DHT22;2532;52.480;13.354;2023-01-24T07:25:48;2.20;92.20
5027;DHT22;2532;52.480;13.354;2023-01-24T07:28:15;2.30;92.20
5027;DHT22;2532;52.480;13.354;2023-01-24T07:30:42;2.20;92.00
5027;DHT22;2532;52.480;13.354;2023-01-24T07:33:13;2.20;92.10
5027;DHT22;2532;52.480;13.354;2023-01-24T07:35:40;2.30;92.10
5027;DHT22;2532;52.480;13.354;2023-01-24T07:38:08;2.30;92.10
5027;DHT22;2532;52.480;13.354;2023-01-24T07:40:36;2.30;92.00
5027;DHT22;2532;52.480;13.354;2023-01-24T07:43:03;2.40;91.90
5027;DHT22;2532;52.480;13.354;2023-01-24T07:45:31;2.40;91.90
5027;DHT22;2532;52.480;13.354;2023-01-24T07:48:00;2.50;93.20
5027;DHT22;2532;52.480;13.354;2023-01-24T07:50:29;2.60;92.40
5027;DHT22;2532;52.480;13.354;2023-01-24T07:52:57;2.60;92.50
5027;DHT22;2532;52.480;13.354;2023-01-24T07:55:24;2.70;91.90
5027;DHT22;2532;52.480;13.354;2023-01-24T07:57:56;2.80;92.00
5027;DHT22;2532;52.480;13.354;2023-01-24T08:00:24;2.80;91.70
5027;DHT22;2532;52.480;13.354;2023-01-24T08:02:50;2.80;91.70
5027;DHT22;2532;52.480;13.354;2023-01-24T08:05:17;2.90;91.90
5027;DHT22;2532;52.480;13.354;2023-01-24T08:07:46;2.90;92.50
5027;DHT22;2532;52.480;13.354;2023-01-24T08:10:13;2.90;91.60
5027;DHT22;2532;52.480;13.354;2023-01-24T08:12:40;2.90;91.60
5027;DHT22;2532;52.480;13.354;2023-01-24T08:15:08;2.90;91.60
5027;DHT22;2532;52.480;13.354;2023-01-24T08:17:35;3.00;91.60
5027;DHT22;2532;52.480;13.354;2023-01-24T08:20:04;2.90;91.40
5027;DHT22;2532;52.480;13.354;2023-01-24T08:22:31;2.90;91.50
5027;DHT22;2532;52.480;13.354;2023-01-24T08:24:59;3.00;92.20
5027;DHT22;2532;52.480;13.354;2023-01-24T08:27:26;3.00;91.60
5027;DHT22;2532;52.480;13.354;2023-01-24T08:29:53;3.00;91.30
5027;DHT22;2532;52.480;13.354;2023-01-24T08:32:20;3.00;91.20
5027;DHT22;2532;52.480;13.354;2023-01-24T08:34:47;2.90;91.30
5027;DHT22;2532;52.480;13.354;2023-01-24T08:37:14;2.90;91.30
5027;DHT22;2532;52.480;13.354;2023-01-24T08:39:41;2.80;91.30
5027;DHT22;2532;52.480;13.354;2023-01-24T08:42:09;2.80;91.80
5027;DHT22;2532;52.480;13.354;2023-01-24T08:44:36;2.80;91.40
5027;DHT22;2532;52.480;13.354;2023-01-24T08:47:04;2.80;91.30
5027;DHT22;2532;52.480;13.354;2023-01-24T08:49:30;2.80;91.40
5027;DHT22;2532;52.480;13.354;2023-01-24T08:51:57;2.70;91.40
5027;DHT22;2532;52.480;13.354;2023-01-24T08:54:25;2.70;91.50
5027;DHT22;2532;52.480;13.354;2023-01-24T08:56:52;2.70;91.60
5027;DHT22;2532;52.480;13.354;2023-01-24T08:59:21;2.70;91.60
5027;DHT22;2532;52.480;13.354;2023-01-24T09:01:48;2.70;91.70
5027;DHT22;2532;52.480;13.354;2023-01-24T09:04:15;2.70;91.80
5027;DHT22;2532;52.480;13.354;2023-01-24T09:06:41;2.70;91.70
5027;DHT22;2532;52.480;13.354;2023-01-24T09:09:08;2.80;91.80
5027;DHT22;2532;52.480;13.354;2023-01-24T09:11:35;2.80;91.70
5027;DHT22;2532;52.480;13.354;2023-01-24T09:14:02;2.80;91.60
5027;DHT22;2532;52.480;13.354;2023-01-24T09:16:30;2.80;91.50
5027;DHT22;2532;52.480;13.354;2023-01-24T09:18:57;2.80;91.60
5027;DHT22;2532;52.480;13.354;2023-01-24T09:21:24;2.80;91.60
5027;DHT22;2532;52.480;13.354;2023-01-24T09:23:53;2.80;91.70
5027;DHT22;2532;52.480;13.354;2023-01-24T09:26:20;2.80;91.60
5027;DHT22;2532;52.480;13.354;2023-01-24T09:28:47;2.90;91.70
5027;DHT22;2532;52.480;13.354;2023-01-24T09:31:14;2.90;91.60
5027;DHT22;2532;52.480;13.354;2023-01-24T09:33:42;2.90;91.70
5027;DHT22;2532;52.480;13.354;2023-01-24T09:36:09;2.90;91.70
5027;DHT22;2532;52.480;13.354;2023-01-24T09:38:36;2.90;91.60
5027;DHT22;2532;52.480;13.354;2023-01-24T09:41:09;3.00;91.70
5027;DHT22;2532;52.480;13.354;2023-01-24T09:43:43;3.00;91.60
5027;DHT22;2532;52.480;13.354;2023-01-24T09:46:18;3.10;91.50
5027;DHT22;2532;52.480;13.354;2023-01-24T09:48:57;3.10;91.40
5027;DHT22;2532;52.480;13.354;2023-01-24T09:51:31;3.10;91.40
5027;DHT22;2532;52.480;13.354;2023-01-24T09:54:02;3.10;91.30
5027;DHT22;2532;52.480;13.354;2023-01-24T09:56:34;3.20;91.30
5027;DHT22;2532;52.480;13.354;2023-01-24T09:59:23;3.20;91.30
5027;DHT22;2532;52.480;13.354;2023-01-24T10:01:54;3.20;91.20
5027;DHT22;2532;52.480;13.354;2023-01-24T10:04:28;3.20;91.30
5027;DHT22;2532;52.480;13.354;2023-01-24T10:09:59;3.30;91.00
5027;DHT22;2532;52.480;13.354;2023-01-24T10:12:47;3.30;90.90
5027;DHT22;2532;52.480;13.354;2023-01-24T10:15:26;3.30;90.90
5027;DHT22;2532;52.480;13.354;2023-01-24T10:18:07;3.40;90.90
5027;DHT22;2532;52.480;13.354;2023-01-24T10:20:48;3.40;91.00
5027;DHT22;2532;52.480;13.354;2023-01-24T10:23:19;3.50;90.80
5027;DHT22;2532;52.480;13.354;2023-01-24T10:25:51;3.50;90.70
5027;DHT22;2532;52.480;13.354;2023-01-24T10:28:24;3.50;90.70
5027;DHT22;2532;52.480;13.354;2023-01-24T10:31:11;3.50;90.80
5027;DHT22;2532;52.480;13.354;2023-01-24T10:33:44;3.60;90.80
5027;DHT22;2532;52.480;13.354;2023-01-24T10:36:20;3.50;90.70
5027;DHT22;2532;52.480;13.354;2023-01-24T10:38:48;3.60;90.70
5027;DHT22;2532;52.480;13.354;2023-01-24T10:41:19;3.60;90.70
5027;DHT22;2532;52.480;13.354;2023-01-24T10:43:52;3.60;90.50
5027;DHT22;2532;52.480;13.354;2023-01-24T10:46:42;3.60;90.60
5027;DHT22;2532;52.480;13.354;2023-01-24T10:49:17;3.60;90.60
5027;DHT22;2532;52.480;13.354;2023-01-24T10:52:08;3.50;90.60
5027;DHT22;2532;52.480;13.354;2023-01-24T10:54:45;3.50;90.70
5027;DHT22;2532;52.480;13.354;2023-01-24T10:57:33;3.50;90.70
5027;DHT22;2532;52.480;13.354;2023-01-24T11:02:50;3.50;90.80
5027;DHT22;2532;52.480;13.354;2023-01-24T11:05:18;3.60;90.90
5027;DHT22;2532;52.480;13.354;2023-01-24T11:07:48;3.60;90.80
5027;DHT22;2532;52.480;13.354;2023-01-24T11:10:20;3.70;90.90
5027;DHT22;2532;52.480;13.354;2023-01-24T11:12:50;3.70;90.90
5027;DHT22;2532;52.480;13.354;2023-01-24T11:15:21;3.70;90.90
5027;DHT22;2532;52.480;13.354;2023-01-24T11:17:56;3.70;91.10
5027;DHT22;2532;52.480;13.354;2023-01-24T11:20:29;3.70;90.90
5027;DHT22;2532;52.480;13.354;2023-01-24T11:23:08;3.70;91.00
5027;DHT22;2532;52.480;13.354;2023-01-24T11:25:50;3.60;91.00
5027;DHT22;2532;52.480;13.354;2023-01-24T11:28:24;3.60;91.00
5027;DHT22;2532;52.480;13.354;2023-01-24T11:30:52;3.60;90.90
5027;DHT22;2532;52.480;13.354;2023-01-24T11:33:40;3.60;91.10
5027;DHT22;2532;52.480;13.354;2023-01-24T11:36:28;3.60;91.20
5027;DHT22;2532;52.480;13.354;2023-01-24T11:39:02;3.70;91.00
5027;DHT22;2532;52.480;13.354;2023-01-24T11:41:36;3.70;91.00
5027;DHT22;2532;52.480;13.354;2023-01-24T11:47:09;3.80;91.00
5027;DHT22;2532;52.480;13.354;2023-01-24T11:49:51;3.80;91.00
5027;DHT22;2532;52.480;13.354;2023-01-24T11:52:42;3.80;90.90
5027;DHT22;2532;52.480;13.354;2023-01-24T11:55:18;3.80;90.90
5027;DHT22;2532;52.480;13.354;2023-01-24T11:57:57;3.80;90.90
5027;DHT22;2532;52.480;13.354;2023-01-24T12:00:32;3.80;90.90
5027;DHT22;2532;52.480;13.354;2023-01-24T12:03:16;3.80;90.90
5027;DHT22;2532;52.480;13.354;2023-01-24T12:05:52;3.80;90.90
5027;DHT22;2532;52.480;13.354;2023-01-24T12:08:36;3.70;90.80
5027;DHT22;2532;52.480;13.354;2023-01-24T12:11:14;3.70;90.80
5027;DHT22;2532;52.480;13.354;2023-01-24T12:13:48;3.70;90.80
5027;DHT22;2532;52.480;13.354;2023-01-24T12:16:29;3.70;90.80
5027;DHT22;2532;52.480;13.354;2023-01-24T12:19:30;3.70;91.00
5027;DHT22;2532;52.480;13.354;2023-01-24T12:22:05;3.80;91.00
5027;DHT22;2532;52.480;13.354;2023-01-24T12:24:38;3.80;90.80
5027;DHT22;2532;52.480;13.354;2023-01-24T12:27:14;3.80;90.80
5027;DHT22;2532;52.480;13.354;2023-01-24T12:29:44;3.80;90.90
5027;DHT22;2532;52.480;13.354;2023-01-24T12:32:19;3.80;90.80
5027;DHT22;2532;52.480;13.354;2023-01-24T12:34:53;3.80;90.80
5027;DHT22;2532;52.480;13.354;2023-01-24T12:37:26;3.80;90.90
5027;DHT22;2532;52.480;13.354;2023-01-24T12:40:02;3.70;90.80
5027;DHT22;2532;52.480;13.354;2023-01-24T12:42:44;3.80;90.90
5027;DHT22;2532;52.480;13.354;2023-01-24T12:45:18;3.70;90.90
5027;DHT22;2532;52.480;13.354;2023-01-24T12:47:48;3.70;90.90
5027;DHT22;2532;52.480;13.354;2023-01-24T12:50:24;3.80;91.00
5027;DHT22;2532;52.480;13.354;2023-01-24T12:53:03;3.80;91.00
5027;DHT22;2532;52.480;13.354;2023-01-24T12:55:39;3.80;91.00
5027;DHT22;2532;52.480;13.354;2023-01-24T12:58:15;3.80;91.00
5027;DHT22;2532;52.480;13.354;2023-01-24T13:00:53;3.80;91.00
5027;DHT22;2532;52.480;13.354;2023-01-24T13:03:38;3.80;91.00
5027;DHT22;2532;52.480;13.354;2023-01-24T13:06:09;3.80;91.00
5027;DHT22;2532;52.480;13.354;2023-01-24T13:08:49;3.80;91.00
5027;DHT22;2532;52.480;13.354;2023-01-24T13:11:19;3.80;91.00
5027;DHT22;2532;52.480;13.354;2023-01-24T13:13:56;3.80;91.00
5027;DHT22;2532;52.480;13.354;2023-01-24T13:16:36;3.80;91.00
5027;DHT22;2532;52.480;13.354;2023-01-24T13:19:24;3.90;91.30
5027;DHT22;2532;52.480;13.354;2023-01-24T13:21:59;3.90;90.90
5027;DHT22;2532;52.480;13.354;2023-01-24T13:24:43;3.90;90.90
5027;DHT22;2532;52.480;13.354;2023-01-24T13:27:30;3.90;91.00
5027;DHT22;2532;52.480;13.354;2023-01-24T13:30:22;3.90;90.80
5027;DHT22;2532;52.480;13.354;2023-01-24T13:32:53;4.00;90.90
5027;DHT22;2532;52.480;13.354;2023-01-24T13:35:24;3.90;90.90
5027;DHT22;2532;52.480;13.354;2023-01-24T13:37:53;3.90;90.80
5027;DHT22;2532;52.480;13.354;2023-01-24T13:40:26;3.90;90.90
5027;DHT22;2532;52.480;13.354;2023-01-24T13:42:56;3.90;90.90
5027;DHT22;2532;52.480;13.354;2023-01-24T13:48:53;3.90;90.90
5027;DHT22;2532;52.480;13.354;2023-01-24T13:51:35;3.90;90.90
5027;DHT22;2532;52.480;13.354;2023-01-24T13:54:20;3.90;90.80
5027;DHT22;2532;52.480;13.354;2023-01-24T13:57:21;4.00;90.70
5027;DHT22;2532;52.480;13.354;2023-01-24T14:03:04;4.10;90.80
5027;DHT22;2532;52.480;13.354;2023-01-24T14:05:43;4.10;90.80
5027;DHT22;2532;52.480;13.354;2023-01-24T14:08:32;4.10;90.90
5027;DHT22;2532;52.480;13.354;2023-01-24T14:14:57;4.20;90.80
5027;DHT22;2532;52.480;13.354;2023-01-24T14:17:45;4.20;90.90
5027;DHT22;2532;52.480;13.354;2023-01-24T14:20:34;4.30;90.80
5027;DHT22;2532;52.480;13.354;2023-01-24T14:23:13;4.30;90.80
5027;DHT22;2532;52.480;13.354;2023-01-24T14:25:48;4.30;90.70
5027;DHT22;2532;52.480;13.354;2023-01-24T14:28:24;4.30;90.60
5027;DHT22;2532;52.480;13.354;2023-01-24T14:30:55;4.20;90.60
5027;DHT22;2532;52.480;13.354;2023-01-24T14:33:33;4.20;90.70
5027;DHT22;2532;52.480;13.354;2023-01-24T14:36:08;4.20;90.80
5027;DHT22;2532;52.480;13.354;2023-01-24T14:38:39;4.20;90.80
5027;DHT22;2532;52.480;13.354;2023-01-24T14:41:19;4.10;90.90
5027;DHT22;2532;52.480;13.354;2023-01-24T14:43:46;4.10;90.80
5027;DHT22;2532;52.480;13.354;2023-01-24T14:46:20;4.10;90.90
5027;DHT22;2532;52.480;13.354;2023-01-24T14:48:56;4.00;90.90
5027;DHT22;2532;52.480;13.354;2023-01-24T14:51:24;4.00;91.00
5027;DHT22;2532;52.480;13.354;2023-01-24T14:53:53;4.10;91.10
5027;DHT22;2532;52.480;13.354;2023-01-24T14:56:21;4.10;91.00
5027;DHT22;2532;52.480;13.354;2023-01-24T14:58:51;4.10;91.00
5027;DHT22;2532;52.480;13.354;2023-01-24T15:01:24;4.10;91.00
5027;DHT22;2532;52.480;13.354;2023-01-24T15:03:52;4.10;91.00
5027;DHT22;2532;52.480;13.354;2023-01-24T15:06:20;4.10;91.00
5027;DHT22;2532;52.480;13.354;2023-01-24T15:08:48;4.10;91.10
5027;DHT22;2532;52.480;13.354;2023-01-24T15:11:20;4.10;91.20
5027;DHT22;2532;52.480;13.354;2023-01-24T15:13:50;4.10;91.10
5027;DHT22;2532;52.480;13.354;2023-01-24T15:16:18;4.20;90.90
5027;DHT22;2532;52.480;13.354;2023-01-24T15:18:47;4.20;90.90
5027;DHT22;2532;52.480;13.354;2023-01-24T15:21:23;4.20;91.00
5027;DHT22;2532;52.480;13.354;2023-01-24T15:23:53;4.20;91.00
5027;DHT22;2532;52.480;13.354;2023-01-24T15:26:43;4.20;91.00
5027;DHT22;2532;52.480;13.354;2023-01-24T15:29:43;4.30;91.00
5027;DHT22;2532;52.480;13.354;2023-01-24T15:32:30;4.30;91.00
5027;DHT22;2532;52.480;13.354;2023-01-24T15:35:26;4.40;91.00
5027;DHT22;2532;52.480;13.354;2023-01-24T15:38:15;4.40;91.00
5027;DHT22;2532;52.480;13.354;2023-01-24T15:40:56;4.40;91.00
5027;DHT22;2532;52.480;13.354;2023-01-24T15:43:31;4.40;90.80
5027;DHT22;2532;52.480;13.354;2023-01-24T15:46:22;4.40;90.80
5027;DHT22;2532;52.480;13.354;2023-01-24T15:49:29;4.40;90.90
5027;DHT22;2532;52.480;13.354;2023-01-24T15:52:18;4.40;90.90
5027;DHT22;2532;52.480;13.354;2023-01-24T15:54:47;4.30;90.90
5027;DHT22;2532;52.480;13.354;2023-01-24T15:57:28;4.40;91.00
5027;DHT22;2532;52.480;13.354;2023-01-24T15:59:59;4.40;91.00
5027;DHT22;2532;52.480;13.354;2023-01-24T16:02:26;4.40;91.10
5027;DHT22;2532;52.480;13.354;2023-01-24T16:04:54;4.40;91.10
5027;DHT22;2532;52.480;13.354;2023-01-24T16:07:21;4.40;91.10
5027;DHT22;2532;52.480;13.354;2023-01-24T16:09:50;4.40;91.00
5027;DHT22;2532;52.480;13.354;2023-01-24T16:12:20;4.50;91.10
5027;DHT22;2532;52.480;13.354;2023-01-24T16:14:49;4.50;91.00
5027;DHT22;2532;52.480;13.354;2023-01-24T16:17:19;4.50;90.90
5027;DHT22;2532;52.480;13.354;2023-01-24T16:19:48;4.40;90.80
5027;DHT22;2532;52.480;13.354;2023-01-24T16:22:15;4.40;90.80
5027;DHT22;2532;52.480;13.354;2023-01-24T16:24:42;4.40;91.10
5027;DHT22;2532;52.480;13.354;2023-01-24T16:27:10;4.40;90.90
5027;DHT22;2532;52.480;13.354;2023-01-24T16:29:39;4.40;91.00
5027;DHT22;2532;52.480;13.354;2023-01-24T16:32:19;4.40;90.90
5027;DHT22;2532;52.480;13.354;2023-01-24T16:34:46;4.40;90.90
5027;DHT22;2532;52.480;13.354;2023-01-24T16:37:14;4.40;91.00
5027;DHT22;2532;52.480;13.354;2023-01-24T16:39:40;4.50;91.00
5027;DHT22;2532;52.480;13.354;2023-01-24T16:42:13;4.40;90.90
5027;DHT22;2532;52.480;13.354;2023-01-24T16:44:41;4.40;91.00
5027;DHT22;2532;52.480;13.354;2023-01-24T16:47:08;4.40;91.00
5027;DHT22;2532;52.480;13.354;2023-01-24T16:49:36;4.40;90.90
5027;DHT22;2532;52.480;13.354;2023-01-24T16:52:04;4.40;90.90
5027;DHT22;2532;52.480;13.354;2023-01-24T16:54:31;4.40;90.90
5027;DHT22;2532;52.480;13.354;2023-01-24T16:56:58;4.40;91.00
5027;DHT22;2532;52.480;13.354;2023-01-24T16:59:25;4.50;91.00
5027;DHT22;2532;52.480;13.354;2023-01-24T17:01:52;4.50;90.90
5027;DHT22;2532;52.480;13.354;2023-01-24T17:04:20;4.40;90.70
5027;DHT22;2532;52.480;13.354;2023-01-24T17:06:48;4.50;90.80
5027;DHT22;2532;52.480;13.354;2023-01-24T17:09:15;4.50;90.80
5027;DHT22;2532;52.480;13.354;2023-01-24T17:11:42;4.50;90.70
5027;DHT22;2532;52.480;13.354;2023-01-24T17:14:10;4.40;90.70
5027;DHT22;2532;52.480;13.354;2023-01-24T17:16:37;4.50;90.80
5027;DHT22;2532;52.480;13.354;2023-01-24T17:19:04;4.40;90.80
5027;DHT22;2532;52.480;13.354;2023-01-24T17:21:31;4.40;90.90
5027;DHT22;2532;52.480;13.354;2023-01-24T17:24:00;4.50;90.90
5027;DHT22;2532;52.480;13.354;2023-01-24T17:26:27;4.50;90.90
5027;DHT22;2532;52.480;13.354;2023-01-24T17:28:54;4.50;90.80
5027;DHT22;2532;52.480;13.354;2023-01-24T17:31:21;4.60;90.80
5027;DHT22;2532;52.480;13.354;2023-01-24T17:33:48;4.60;90.70
5027;DHT22;2532;52.480;13.354;2023-01-24T17:36:15;4.60;90.70
5027;DHT22;2532;52.480;13.354;2023-01-24T17:38:42;4.60;90.80
5027;DHT22;2532;52.480;13.354;2023-01-24T17:41:16;4.60;90.80
5027;DHT22;2532;52.480;13.354;2023-01-24T17:43:45;4.60;90.80
5027;DHT22;2532;52.480;13.354;2023-01-24T17:46:13;4.60;90.90
5027;DHT22;2532;52.480;13.354;2023-01-24T17:48:41;4.60;91.00
5027;DHT22;2532;52.480;13.354;2023-01-24T17:51:09;4.70;91.00
5027;DHT22;2532;52.480;13.354;2023-01-24T17:53:39;4.70;90.80
5027;DHT22;2532;52.480;13.354;2023-01-24T17:56:07;4.70;90.80
5027;DHT22;2532;52.480;13.354;2023-01-24T17:58:37;4.70;90.80
5027;DHT22;2532;52.480;13.354;2023-01-24T18:01:05;4.60;90.80
5027;DHT22;2532;52.480;13.354;2023-01-24T18:03:32;4.60;90.80
5027;DHT22;2532;52.480;13.354;2023-01-24T18:06:01;4.60;90.90
5027;DHT22;2532;52.480;13.354;2023-01-24T18:08:29;4.50;90.80
5027;DHT22;2532;52.480;13.354;2023-01-24T18:10:57;4.50;90.80
5027;DHT22;2532;52.480;13.354;2023-01-24T18:13:27;4.50;90.80
5027;DHT22;2532;52.480;13.354;2023-01-24T18:16:01;4.50;90.90
5027;DHT22;2532;52.480;13.354;2023-01-24T18:18:29;4.40;91.00
5027;DHT22;2532;52.480;13.354;2023-01-24T18:20:56;4.40;91.10
5027;DHT22;2532;52.480;13.354;2023-01-24T18:23:23;4.40;91.10
5027;DHT22;2532;52.480;13.354;2023-01-24T18:25:50;4.40;91.10
5027;DHT22;2532;52.480;13.354;2023-01-24T18:28:17;4.30;91.10
5027;DHT22;2532;52.480;13.354;2023-01-24T18:30:44;4.30;91.20
5027;DHT22;2532;52.480;13.354;2023-01-24T18:33:12;4.30;91.20
5027;DHT22;2532;52.480;13.354;2023-01-24T18:35:40;4.30;91.20
5027;DHT22;2532;52.480;13.354;2023-01-24T18:38:07;4.30;91.30
5027;DHT22;2532;52.480;13.354;2023-01-24T18:40:34;4.30;91.20
5027;DHT22;2532;52.480;13.354;2023-01-24T18:43:01;4.20;91.30
5027;DHT22;2532;52.480;13.354;2023-01-24T18:45:28;4.20;91.30
5027;DHT22;2532;52.480;13.354;2023-01-24T18:47:58;4.20;91.30
5027;DHT22;2532;52.480;13.354;2023-01-24T18:50:26;4.20;91.30
5027;DHT22;2532;52.480;13.354;2023-01-24T18:52:54;4.20;91.30
5027;DHT22;2532;52.480;13.354;2023-01-24T18:55:21;4.10;91.40
5027;DHT22;2532;52.480;13.354;2023-01-24T18:57:48;4.20;91.40
5027;DHT22;2532;52.480;13.354;2023-01-24T19:00:16;4.10;91.40
5027;DHT22;2532;52.480;13.354;2023-01-24T19:02:46;4.10;91.40
5027;DHT22;2532;52.480;13.354;2023-01-24T19:05:13;4.10;91.40
5027;DHT22;2532;52.480;13.354;2023-01-24T19:07:41;4.10;91.30
5027;DHT22;2532;52.480;13.354;2023-01-24T19:10:11;4.10;91.40
5027;DHT22;2532;52.480;13.354;2023-01-24T19:12:39;4.10;91.40
5027;DHT22;2532;52.480;13.354;2023-01-24T19:15:07;4.00;91.50
5027;DHT22;2532;52.480;13.354;2023-01-24T19:17:35;4.00;91.50
5027;DHT22;2532;52.480;13.354;2023-01-24T19:20:02;4.00;91.60
5027;DHT22;2532;52.480;13.354;2023-01-24T19:22:29;4.00;91.60
5027;DHT22;2532;52.480;13.354;2023-01-24T19:24:58;4.10;91.50
5027;DHT22;2532;52.480;13.354;2023-01-24T19:27:25;4.10;91.40
5027;DHT22;2532;52.480;13.354;2023-01-24T19:29:52;4.10;91.50
5027;DHT22;2532;52.480;13.354;2023-01-24T19:32:19;4.10;91.40
5027;DHT22;2532;52.480;13.354;2023-01-24T19:34:46;4.20;91.50
5027;DHT22;2532;52.480;13.354;2023-01-24T19:37:13;4.20;91.40
5027;DHT22;2532;52.480;13.354;2023-01-24T19:39:40;4.20;91.30
5027;DHT22;2532;52.480;13.354;2023-01-24T19:42:09;4.20;91.30
5027;DHT22;2532;52.480;13.354;2023-01-24T19:44:36;4.20;91.30
5027;DHT22;2532;52.480;13.354;2023-01-24T19:47:03;4.30;91.40
5027;DHT22;2532;52.480;13.354;2023-01-24T19:49:32;4.30;91.30
5027;DHT22;2532;52.480;13.354;2023-01-24T19:51:59;4.40;91.20
5027;DHT22;2532;52.480;13.354;2023-01-24T19:54:26;4.40;91.10
5027;DHT22;2532;52.480;13.354;2023-01-24T19:56:53;4.40;91.10
5027;DHT22;2532;52.480;13.354;2023-01-24T19:59:22;4.40;91.20
5027;DHT22;2532;52.480;13.354;2023-01-24T20:01:49;4.30;91.20
5027;DHT22;2532;52.480;13.354;2023-01-24T20:04:18;4.40;91.10
5027;DHT22;2532;52.480;13.354;2023-01-24T20:06:45;4.40;91.20
5027;DHT22;2532;52.480;13.354;2023-01-24T20:09:12;4.40;91.20
5027;DHT22;2532;52.480;13.354;2023-01-24T20:11:40;4.40;91.20
5027;DHT22;2532;52.480;13.354;2023-01-24T20:14:07;4.40;91.20
5027;DHT22;2532;52.480;13.354;2023-01-24T20:16:36;4.40;91.10
5027;DHT22;2532;52.480;13.354;2023-01-24T20:19:03;4.50;91.00
5027;DHT22;2532;52.480;13.354;2023-01-24T20:21:33;4.50;91.00
5027;DHT22;2532;52.480;13.354;2023-01-24T20:24:01;4.50;91.00
5027;DHT22;2532;52.480;13.354;2023-01-24T20:26:29;4.50;90.90
5027;DHT22;2532;52.480;13.354;2023-01-24T20:28:58;4.50;90.90
5027;DHT22;2532;52.480;13.354;2023-01-24T20:31:25;4.50;91.00
5027;DHT22;2532;52.480;13.354;2023-01-24T20:33:54;4.50;91.00
5027;DHT22;2532;52.480;13.354;2023-01-24T20:36:22;4.50;90.90
5027;DHT22;2532;52.480;13.354;2023-01-24T20:38:53;4.50;91.00
5027;DHT22;2532;52.480;13.354;2023-01-24T20:41:21;4.40;91.00
5027;DHT22;2532;52.480;13.354;2023-01-24T20:43:49;4.40;91.10
5027;DHT22;2532;52.480;13.354;2023-01-24T20:46:19;4.40;91.10
5027;DHT22;2532;52.480;13.354;2023-01-24T20:48:46;4.40;91.00
5027;DHT22;2532;52.480;13.354;2023-01-24T20:51:16;4.40;91.10
5027;DHT22;2532;52.480;13.354;2023-01-24T20:53:43;4.30;91.00
5027;DHT22;2532;52.480;13.354;2023-01-24T20:56:11;4.30;91.10
5027;DHT22;2532;52.480;13.354;2023-01-24T20:58:39;4.20;91.20
5027;DHT22;2532;52.480;13.354;2023-01-24T21:01:09;4.20;91.30
5027;DHT22;2532;52.480;13.354;2023-01-24T21:03:40;4.20;91.40
5027;DHT22;2532;52.480;13.354;2023-01-24T21:06:08;4.20;91.40
5027;DHT22;2532;52.480;13.354;2023-01-24T21:08:39;4.10;91.40
5027;DHT22;2532;52.480;13.354;2023-01-24T21:11:07;4.10;91.50
5027;DHT22;2532;52.480;13.354;2023-01-24T21:13:35;4.20;91.50
5027;DHT22;2532;52.480;13.354;2023-01-24T21:16:06;4.10;91.30
5027;DHT22;2532;52.480;13.354;2023-01-24T21:18:33;4.20;91.30
5027;DHT22;2532;52.480;13.354;2023-01-24T21:21:00;4.20;91.40
5027;DHT22;2532;52.480;13.354;2023-01-24T21:23:27;4.20;91.40
5027;DHT22;2532;52.480;13.354;2023-01-24T21:25:56;4.20;91.30
5027;DHT22;2532;52.480;13.354;2023-01-24T21:28:24;4.30;91.30
5027;DHT22;2532;52.480;13.354;2023-01-24T21:30:58;4.30;91.30
5027;DHT22;2532;52.480;13.354;2023-01-24T21:33:26;4.40;91.20
5027;DHT22;2532;52.480;13.354;2023-01-24T21:36:09;4.40;91.00
5027;DHT22;2532;52.480;13.354;2023-01-24T21:38:39;4.40;91.00
5027;DHT22;2532;52.480;13.354;2023-01-24T21:41:10;4.30;90.90
5027;DHT22;2532;52.480;13.354;2023-01-24T21:43:55;4.30;91.00
5027;DHT22;2532;52.480;13.354;2023-01-24T21:46:22;4.30;91.10
5027;DHT22;2532;52.480;13.354;2023-01-24T21:48:49;4.30;91.20
5027;DHT22;2532;52.480;13.354;2023-01-24T21:51:32;4.30;91.10